Terminal Aerodrome Forecast
Issued by NWS Austin/San Antonio, TX

Home | Current Version | Previous Version | Text Only | Print | Product List | Glossary On
Versions: 1 2 3 4 5 6 7 8 9 10 11 12 13 14 15 16 17 18 19 20 21 22 23 24 25 26 27
000
FTUS44 KEWX 211200 AAA
TAFSAT
TAF AMD
KSAT 211251Z 2113/2218 17014KT P6SM SCT020 SCT080
     FM211600 17010G20KT P6SM SCT040
     FM212200 15016G26KT P6SM SCT060
     FM220800 17010KT P6SM BKN012
     FM221600 17012KT P6SM SCT050=

USA.gov is the U.S. government's official web portal to all federal, state and local government web resources and services.